createdAt,value
2022-12-25T00:01:13.468Z,78.25
2022-12-25T00:03:48.078Z,78.39
2022-12-25T00:06:15.172Z,78.21
2022-12-25T00:08:42.579Z,77.97
2022-12-25T00:11:15.198Z,78.13
2022-12-25T00:13:42.560Z,78.31
2022-12-25T00:16:16.962Z,78.18
2022-12-25T00:18:44.931Z,78.43
2022-12-25T00:21:13.017Z,78.42
2022-12-25T00:23:40.161Z,78.31
2022-12-25T00:26:12.136Z,78.48
2022-12-25T00:28:40.847Z,78.35
2022-12-25T00:31:13.716Z,78.45
2022-12-25T00:33:43.050Z,78.66
2022-12-25T00:36:11.164Z,78.29
2022-12-25T00:38:39.202Z,78.66
2022-12-25T00:41:11.309Z,78.74
2022-12-25T00:43:38.301Z,78.66
2022-12-25T00:46:06.566Z,78.77
2022-12-25T00:48:34.345Z,78.78
2022-12-25T00:51:07.107Z,78.32
2022-12-25T00:53:34.148Z,78.23
2022-12-25T00:56:04.724Z,78.35
2022-12-25T00:58:33.390Z,78.51
2022-12-25T01:01:02.240Z,78.65
2022-12-25T01:03:29.387Z,78.62
2022-12-25T01:06:02.018Z,78.52
2022-12-25T01:08:31.995Z,78.47
2022-12-25T01:11:01.722Z,78.92
2022-12-25T01:13:30.230Z,78.93
2022-12-25T01:15:57.461Z,78.73
2022-12-25T01:18:25.090Z,78.80
2022-12-25T01:20:53.739Z,78.81
2022-12-25T01:23:20.854Z,79.23
2022-12-25T01:25:47.743Z,79.05
2022-12-25T01:28:15.808Z,78.95
2022-12-25T01:30:50.051Z,79.01
2022-12-25T01:33:17.226Z,79.12
2022-12-25T01:35:44.165Z,78.82
2022-12-25T01:38:11.257Z,78.98
2022-12-25T01:40:38.657Z,79.05
2022-12-25T01:43:33.716Z,79.09
2022-12-25T01:46:03.335Z,79.05
2022-12-25T01:48:37.134Z,78.82
2022-12-25T01:51:29.718Z,78.90
2022-12-25T01:54:01.891Z,78.86
2022-12-25T01:56:31.335Z,78.84
2022-12-25T01:59:03.128Z,78.86
2022-12-25T02:01:31.980Z,78.69
2022-12-25T02:04:05.300Z,78.74
2022-12-25T02:06:34.169Z,78.90
2022-12-25T02:09:01.556Z,78.83
2022-12-25T02:11:47.196Z,78.71
2022-12-25T02:14:14.310Z,78.69
2022-12-25T02:16:57.652Z,78.93
2022-12-25T02:19:46.629Z,78.69
2022-12-25T02:22:31.583Z,78.65
2022-12-25T02:25:27.186Z,78.68
2022-12-25T02:28:11.841Z,78.89
2022-12-25T02:30:43.901Z,78.60
2022-12-25T02:33:38.376Z,78.77
2022-12-25T02:36:10.904Z,79.01
2022-12-25T02:39:03.442Z,78.59
2022-12-25T02:41:36.848Z,78.86
2022-12-25T02:44:28.220Z,78.88
2022-12-25T02:47:13.735Z,78.88
2022-12-25T02:50:01.131Z,78.76
2022-12-25T02:52:49.462Z,78.68
2022-12-25T02:55:42.564Z,78.87
2022-12-25T02:58:32.699Z,78.88
2022-12-25T03:01:24.199Z,78.70
2022-12-25T03:04:16.133Z,78.45
2022-12-25T03:06:58.268Z,78.66
2022-12-25T03:09:49.225Z,79.07
2022-12-25T03:12:28.301Z,78.64
2022-12-25T03:15:13.794Z,78.51
2022-12-25T03:17:40.853Z,78.95
2022-12-25T03:20:26.775Z,78.58
2022-12-25T03:23:12.541Z,78.77
2022-12-25T03:25:59.023Z,78.43
2022-12-25T03:28:26.742Z,78.29
2022-12-25T03:31:19.244Z,78.64
2022-12-25T03:34:10.697Z,78.62
2022-12-25T03:37:06.351Z,78.51
2022-12-25T03:39:52.849Z,78.44
2022-12-25T03:42:47.180Z,78.28
2022-12-25T03:45:44.722Z,78.71
2022-12-25T03:48:12.806Z,78.72
2022-12-25T03:51:10.169Z,79.11
2022-12-25T03:54:06.232Z,78.83
2022-12-25T03:56:55.695Z,78.73
2022-12-25T03:59:42.256Z,78.56
2022-12-25T04:02:28.195Z,78.62
2022-12-25T04:05:13.865Z,78.36
2022-12-25T04:07:59.180Z,78.46
2022-12-25T04:10:44.701Z,78.38
2022-12-25T04:13:30.124Z,78.44
2022-12-25T04:16:15.653Z,78.20
2022-12-25T04:19:01.040Z,78.68
2022-12-25T04:21:46.349Z,78.45
2022-12-25T04:24:31.644Z,78.36
2022-12-25T04:27:16.707Z,78.02
2022-12-25T04:30:02.519Z,78.56
2022-12-25T04:32:48.473Z,78.26
2022-12-25T04:35:33.820Z,78.37
2022-12-25T04:38:00.660Z,78.49
2022-12-25T04:40:27.524Z,78.41
2022-12-25T04:42:54.270Z,78.55
2022-12-25T04:45:21.024Z,78.48
2022-12-25T04:47:47.823Z,78.40
2022-12-25T04:50:14.517Z,78.15
2022-12-25T04:52:41.689Z,78.46
2022-12-25T04:55:10.002Z,78.27
2022-12-25T04:57:37.155Z,78.43
2022-12-25T05:00:05.056Z,78.52
2022-12-25T05:02:31.950Z,78.59
2022-12-25T05:04:58.927Z,78.72
2022-12-25T05:07:26.143Z,78.50
2022-12-25T05:09:52.812Z,78.62
2022-12-25T05:12:19.675Z,78.55
2022-12-25T05:14:46.527Z,78.68
2022-12-25T05:17:13.323Z,78.66
2022-12-25T05:19:40.044Z,78.27
2022-12-25T05:22:06.774Z,78.30
2022-12-25T05:24:33.523Z,78.66
2022-12-25T05:27:00.327Z,78.69
2022-12-25T05:29:27.197Z,78.54
2022-12-25T05:31:54.271Z,78.86
2022-12-25T05:34:21.064Z,78.68
2022-12-25T05:36:47.816Z,78.57
2022-12-25T05:39:14.542Z,78.60
2022-12-25T05:41:41.412Z,78.57
2022-12-25T05:44:08.192Z,78.81
2022-12-25T05:46:35.088Z,78.75
2022-12-25T05:49:02.310Z,79.15
2022-12-25T05:51:30.246Z,78.89
2022-12-25T05:53:57.372Z,78.93
2022-12-25T05:56:24.132Z,79.23
2022-12-25T05:58:50.958Z,79.25
2022-12-25T06:01:21.304Z,79.46
2022-12-25T06:03:48.332Z,79.25
2022-12-25T06:06:15.195Z,79.46
2022-12-25T06:08:42.417Z,79.32
2022-12-25T06:11:10.130Z,79.61
2022-12-25T06:13:36.930Z,79.29
2022-12-25T06:16:09.086Z,79.67
2022-12-25T06:18:37.785Z,79.54
2022-12-25T06:21:09.487Z,79.37
2022-12-25T06:23:37.772Z,79.59
2022-12-25T06:26:06.674Z,79.50
2022-12-25T06:28:33.414Z,79.37
2022-12-25T06:31:06.662Z,79.69
2022-12-25T06:33:33.668Z,79.52
2022-12-25T06:36:05.299Z,80.00
2022-12-25T06:38:31.997Z,79.88
2022-12-25T06:41:04.108Z,80.16
2022-12-25T06:43:30.882Z,80.37
2022-12-25T06:46:03.066Z,80.09
2022-12-25T06:48:29.957Z,79.65
2022-12-25T06:50:56.775Z,80.05
2022-12-25T06:53:23.553Z,80.24
2022-12-25T06:55:50.325Z,80.46
2022-12-25T06:58:17.123Z,80.13
2022-12-25T07:00:43.888Z,80.11
2022-12-25T07:03:19.451Z,80.34
2022-12-25T07:05:46.761Z,80.46
2022-12-25T07:08:13.796Z,80.38
2022-12-25T07:10:40.596Z,80.71
2022-12-25T07:13:07.341Z,80.92
2022-12-25T07:15:34.441Z,80.72
2022-12-25T07:18:01.666Z,80.71
2022-12-25T07:20:29.476Z,80.98
2022-12-25T07:22:56.267Z,80.88
2022-12-25T07:25:23.002Z,80.85
2022-12-25T07:27:50.082Z,80.78
2022-12-25T07:30:16.821Z,80.79
2022-12-25T07:32:49.831Z,80.82
2022-12-25T07:35:16.988Z,80.97
2022-12-25T07:37:43.738Z,81.11
2022-12-25T07:40:10.644Z,80.86
2022-12-25T07:42:37.329Z,80.79
2022-12-25T07:45:05.493Z,80.70
2022-12-25T07:47:32.567Z,80.54
2022-12-25T07:49:59.314Z,80.60
2022-12-25T07:52:26.012Z,80.71
2022-12-25T07:54:52.762Z,80.71
2022-12-25T07:57:19.580Z,80.57
2022-12-25T07:59:46.329Z,80.79
2022-12-25T08:02:13.272Z,80.57
2022-12-25T08:04:41.407Z,80.37
2022-12-25T08:07:08.144Z,80.61
2022-12-25T08:09:35.146Z,80.89
2022-12-25T08:12:01.855Z,80.74
2022-12-25T08:14:29.137Z,80.67
2022-12-25T08:16:56.045Z,80.71
2022-12-25T08:19:22.753Z,81.03
2022-12-25T08:21:49.702Z,81.45
2022-12-25T08:24:16.468Z,81.42
2022-12-25T08:26:43.170Z,81.30
2022-12-25T08:29:09.916Z,81.47
2022-12-25T08:31:42.436Z,81.46
2022-12-25T08:34:13.264Z,81.27
2022-12-25T08:36:40.933Z,81.28
2022-12-25T08:39:08.260Z,81.17
2022-12-25T08:41:37.691Z,81.20
2022-12-25T08:44:05.695Z,81.16
2022-12-25T08:46:32.718Z,81.19
2022-12-25T08:48:59.543Z,81.13
2022-12-25T08:51:26.262Z,81.13
2022-12-25T08:53:57.641Z,81.16
2022-12-25T08:56:24.739Z,81.22
2022-12-25T08:58:51.570Z,81.37
2022-12-25T09:01:18.534Z,80.80
2022-12-25T09:03:45.345Z,81.07
2022-12-25T09:06:14.598Z,81.14
2022-12-25T09:08:48.029Z,81.18
2022-12-25T09:11:17.648Z,81.02
2022-12-25T09:13:44.457Z,80.87
2022-12-25T09:16:15.043Z,81.10
2022-12-25T09:18:42.015Z,81.40
2022-12-25T09:21:11.230Z,81.26
2022-12-25T09:23:38.566Z,81.11
2022-12-25T09:26:07.357Z,81.07
2022-12-25T09:28:34.470Z,81.14
2022-12-25T09:31:01.804Z,81.32
2022-12-25T09:33:28.584Z,81.28
2022-12-25T09:35:57.282Z,81.38
2022-12-25T09:38:25.048Z,81.26
2022-12-25T09:41:02.840Z,81.36
2022-12-25T09:43:33.427Z,81.34
2022-12-25T09:46:02.311Z,81.07
2022-12-25T09:48:32.991Z,80.86
2022-12-25T09:51:09.184Z,80.87
2022-12-25T09:53:40.237Z,81.03
2022-12-25T09:56:25.607Z,81.07
2022-12-25T09:58:54.170Z,81.32
2022-12-25T10:01:41.028Z,81.28
2022-12-25T10:04:07.835Z,81.51
2022-12-25T10:06:37.340Z,81.31
2022-12-25T10:09:29.862Z,81.12
2022-12-25T10:12:40.966Z,81.37
2022-12-25T10:15:07.694Z,81.00
2022-12-25T10:17:48.694Z,80.94
2022-12-25T10:20:26.868Z,80.96
2022-12-25T10:22:58.837Z,80.88
2022-12-25T10:25:25.700Z,80.93
2022-12-25T10:27:58.204Z,80.95
2022-12-25T10:30:27.630Z,80.94
2022-12-25T10:32:56.709Z,80.88
2022-12-25T10:35:27.115Z,81.03
2022-12-25T10:38:02.572Z,81.10
2022-12-25T10:41:09.319Z,81.02
2022-12-25T10:43:49.739Z,81.21
2022-12-25T10:46:17.778Z,81.26
2022-12-25T10:48:50.690Z,81.29
2022-12-25T10:51:36.677Z,81.39
2022-12-25T10:54:19.791Z,81.40
2022-12-25T10:57:16.818Z,81.48
2022-12-25T10:59:55.822Z,81.75
2022-12-25T11:02:34.293Z,81.39
2022-12-25T11:05:08.607Z,81.39
2022-12-25T11:07:46.066Z,81.54
2022-12-25T11:10:30.233Z,81.39
2022-12-25T11:12:58.687Z,81.69
2022-12-25T11:15:35.952Z,81.52
2022-12-25T11:18:27.963Z,81.49
2022-12-25T11:21:00.505Z,81.42
2022-12-25T11:23:30.133Z,81.57
2022-12-25T11:25:58.287Z,81.77
2022-12-25T11:28:27.315Z,81.51
2022-12-25T11:31:16.320Z,81.53
2022-12-25T11:34:19.721Z,81.29
2022-12-25T11:36:49.304Z,81.29
2022-12-25T11:39:27.137Z,81.33
2022-12-25T11:42:24.020Z,81.16
2022-12-25T11:45:59.016Z,81.33
2022-12-25T11:48:49.641Z,81.24
2022-12-25T11:51:19.203Z,81.17
2022-12-25T11:53:55.565Z,81.38
2022-12-25T11:56:28.699Z,81.13
2022-12-25T11:59:09.333Z,81.22
2022-12-25T12:02:01.584Z,81.23
2022-12-25T12:04:43.007Z,81.26
2022-12-25T12:07:28.460Z,81.30
2022-12-25T12:10:13.350Z,81.37
2022-12-25T12:12:55.496Z,81.42
2022-12-25T12:15:44.405Z,81.40
2022-12-25T12:18:26.709Z,81.54
2022-12-25T12:25:55.950Z,81.74
2022-12-25T12:55:39.829Z,81.54
2022-12-25T13:03:08.492Z,81.24
2022-12-25T13:10:44.617Z,81.10
2022-12-25T13:13:29.966Z,81.28
2022-12-25T13:15:57.590Z,81.12
2022-12-25T13:18:24.689Z,81.16
2022-12-25T13:21:09.569Z,81.11
2022-12-25T13:23:37.291Z,81.15
2022-12-25T13:26:17.361Z,81.03
2022-12-25T13:28:46.898Z,80.98
2022-12-25T13:31:18.186Z,80.99
2022-12-25T13:33:50.858Z,80.98
2022-12-25T13:36:17.968Z,80.99
2022-12-25T13:38:47.368Z,81.09
2022-12-25T13:41:42.533Z,81.00
2022-12-25T13:44:25.978Z,81.09
2022-12-25T13:46:52.790Z,81.16
2022-12-25T13:49:22.963Z,80.88
2022-12-25T13:51:50.628Z,81.14
2022-12-25T13:54:18.821Z,81.06
2022-12-25T13:56:51.452Z,81.00
2022-12-25T13:59:24.256Z,80.96
2022-12-25T14:01:53.193Z,80.98
2022-12-25T14:04:23.303Z,80.81
2022-12-25T14:06:52.102Z,80.90
2022-12-25T14:09:19.966Z,80.82
2022-12-25T14:11:51.801Z,80.85
2022-12-25T14:14:27.189Z,80.80
2022-12-25T14:16:56.477Z,80.75
2022-12-25T14:19:29.926Z,80.79
2022-12-25T14:22:02.425Z,80.80
2022-12-25T14:24:32.831Z,80.73
2022-12-25T14:27:02.472Z,80.86
2022-12-25T14:29:36.466Z,80.84
2022-12-25T14:32:06.277Z,80.66
2022-12-25T14:34:33.933Z,80.70
2022-12-25T14:37:03.743Z,80.80
2022-12-25T14:39:37.164Z,80.73
2022-12-25T14:42:20.798Z,80.76
2022-12-25T14:44:57.104Z,80.73
2022-12-25T14:47:24.439Z,80.70
2022-12-25T14:49:53.188Z,80.74
2022-12-25T14:52:38.918Z,80.74
2022-12-25T14:55:15.722Z,80.74
2022-12-25T14:57:48.144Z,80.71
2022-12-25T15:00:25.276Z,80.67
2022-12-25T15:02:55.373Z,80.91
2022-12-25T15:05:28.186Z,80.76
2022-12-25T15:08:04.202Z,80.93
2022-12-25T15:10:59.605Z,81.01
2022-12-25T15:13:19.324Z,80.96
2022-12-25T15:15:56.115Z,80.94
2022-12-25T15:18:27.429Z,80.86
2022-12-25T15:20:55.820Z,80.91
2022-12-25T15:23:24.736Z,80.94
2022-12-25T15:25:55.292Z,80.97
2022-12-25T15:28:22.425Z,80.90
2022-12-25T15:30:49.667Z,80.88
2022-12-25T15:33:18.922Z,80.75
2022-12-25T15:35:48.393Z,80.79
2022-12-25T15:38:15.350Z,80.74
2022-12-25T15:44:29.810Z,80.68
2022-12-25T15:47:01.464Z,81.01
2022-12-25T15:49:28.688Z,80.87
2022-12-25T15:51:55.730Z,80.87
2022-12-25T15:54:48.875Z,80.89
2022-12-25T15:57:28.456Z,80.90
2022-12-25T16:00:23.031Z,80.94
2022-12-25T16:02:50.549Z,80.97
2022-12-25T16:05:17.791Z,80.86
2022-12-25T16:07:45.339Z,80.98
2022-12-25T16:10:38.386Z,80.98
2022-12-25T16:13:06.242Z,81.05
2022-12-25T16:15:54.206Z,80.90
2022-12-25T16:18:32.552Z,80.93
2022-12-25T16:20:59.751Z,80.94
2022-12-25T16:23:26.925Z,80.93
2022-12-25T16:25:57.691Z,81.05
2022-12-25T16:29:42.965Z,81.12
2022-12-25T16:32:11.353Z,81.00
2022-12-25T16:34:40.751Z,81.00
2022-12-25T16:37:08.411Z,81.10
2022-12-25T16:39:36.780Z,81.03
2022-12-25T16:42:03.799Z,81.13
2022-12-25T16:44:30.695Z,81.15
2022-12-25T16:46:57.919Z,81.11
2022-12-25T16:49:29.139Z,81.00
2022-12-25T16:51:56.594Z,81.01
2022-12-25T16:54:30.091Z,80.95
2022-12-25T17:01:17.775Z,80.90
2022-12-25T17:03:46.755Z,80.82
2022-12-25T17:06:22.341Z,81.14
2022-12-25T17:08:58.476Z,81.10
2022-12-25T17:11:29.845Z,80.88
2022-12-25T17:14:01.998Z,81.12
2022-12-25T17:16:31.909Z,81.29
2022-12-25T17:19:01.881Z,81.23
2022-12-25T17:21:29.772Z,80.97
2022-12-25T17:24:02.344Z,81.11
2022-12-25T17:26:33.666Z,81.07
2022-12-25T17:29:00.822Z,81.04
2022-12-25T17:31:28.623Z,81.18
2022-12-25T17:33:55.904Z,81.06
2022-12-25T17:36:24.647Z,81.03
2022-12-25T17:38:52.845Z,81.21
2022-12-25T17:41:22.245Z,81.16
2022-12-25T17:43:59.263Z,81.15
2022-12-25T17:46:33.746Z,81.13
2022-12-25T17:49:01.657Z,81.08
2022-12-25T17:51:30.216Z,81.30
2022-12-25T17:54:02.541Z,81.37
2022-12-25T17:56:30.022Z,81.21
2022-12-25T17:58:59.645Z,81.30
2022-12-25T18:01:54.828Z,81.26
2022-12-25T18:04:36.414Z,81.32
2022-12-25T18:07:23.885Z,81.30
2022-12-25T18:10:03.409Z,81.38
2022-12-25T18:12:30.921Z,81.37
2022-12-25T18:15:25.989Z,81.33
2022-12-25T18:18:00.454Z,81.55
2022-12-25T18:20:29.525Z,81.59
2022-12-25T18:23:03.091Z,81.39
2022-12-25T18:25:35.849Z,81.39
2022-12-25T18:32:56.615Z,81.66
2022-12-25T18:36:16.148Z,81.69
2022-12-25T18:38:53.622Z,81.85
2022-12-25T18:41:23.741Z,81.81
2022-12-25T18:46:41.235Z,81.92
2022-12-25T18:47:57.619Z,81.92
2022-12-25T18:50:40.981Z,81.87
2022-12-25T18:53:18.557Z,81.99
2022-12-25T18:56:07.252Z,82.17
2022-12-25T18:58:37.570Z,81.80
2022-12-25T19:01:19.341Z,81.84
2022-12-25T19:03:48.232Z,81.84
2022-12-25T19:14:47.174Z,82.04
2022-12-25T19:17:41.536Z,82.18
2022-12-25T19:20:17.807Z,82.09
2022-12-25T19:22:47.990Z,82.21
2022-12-25T19:25:27.827Z,82.20
2022-12-25T19:28:18.286Z,82.21
2022-12-25T19:30:55.522Z,82.18
2022-12-25T19:33:22.778Z,82.25
2022-12-25T19:35:50.055Z,82.17
2022-12-25T19:38:22.200Z,82.19
2022-12-25T19:41:01.179Z,82.46
2022-12-25T19:43:31.062Z,82.19
2022-12-25T19:45:58.078Z,82.37
2022-12-25T19:48:25.181Z,82.20
2022-12-25T19:51:16.558Z,82.22
2022-12-25T19:53:47.203Z,82.23
2022-12-25T19:56:14.881Z,82.26
2022-12-25T19:58:41.720Z,82.08
2022-12-25T20:01:14.090Z,82.14
2022-12-25T20:04:36.659Z,82.28
2022-12-25T20:07:06.288Z,82.30
2022-12-25T20:09:33.068Z,82.32
2022-12-25T20:11:59.883Z,82.27
2022-12-25T20:14:27.023Z,82.36
2022-12-25T20:16:53.770Z,82.25
2022-12-25T20:19:20.677Z,82.36
2022-12-25T20:21:47.772Z,82.42
2022-12-25T20:24:15.105Z,82.30
2022-12-25T20:26:59.171Z,82.58
2022-12-25T20:29:26.481Z,82.47
2022-12-25T20:31:57.078Z,82.49
2022-12-25T20:34:24.154Z,82.50
2022-12-25T20:36:51.291Z,82.44
2022-12-25T20:39:18.321Z,82.36
2022-12-25T20:41:46.950Z,82.40
2022-12-25T20:44:15.757Z,82.38
2022-12-25T20:46:44.084Z,82.46
2022-12-25T20:49:12.994Z,82.49
2022-12-25T20:51:46.383Z,82.59
2022-12-25T20:54:43.262Z,82.51
2022-12-25T20:57:58.982Z,82.57
2022-12-25T21:00:27.314Z,82.56
2022-12-25T21:03:03.482Z,82.72
2022-12-25T21:06:13.175Z,82.70
2022-12-25T21:08:57.898Z,82.72
2022-12-25T21:14:08.480Z,82.73
2022-12-25T21:16:35.777Z,82.74
2022-12-25T21:19:13.027Z,82.64
2022-12-25T21:21:43.445Z,82.76
2022-12-25T21:24:44.881Z,82.64
2022-12-25T21:27:12.078Z,82.80
2022-12-25T21:30:22.884Z,82.59
2022-12-25T21:33:51.191Z,82.76
2022-12-25T21:36:33.231Z,82.71
2022-12-25T21:39:03.671Z,82.55
2022-12-25T21:41:33.005Z,82.79
2022-12-25T21:44:02.831Z,82.72
2022-12-25T21:46:59.744Z,82.62
2022-12-25T21:49:45.342Z,82.62
2022-12-25T21:52:12.237Z,82.54
2022-12-25T21:58:05.004Z,82.58
2022-12-25T22:00:32.121Z,82.75
2022-12-25T22:02:59.175Z,82.66
2022-12-25T22:05:44.855Z,82.65
2022-12-25T22:08:11.815Z,82.84
2022-12-25T22:10:38.973Z,82.88
2022-12-25T22:13:24.288Z,82.79
2022-12-25T22:16:09.763Z,82.72
2022-12-25T22:18:55.273Z,82.83
2022-12-25T22:21:22.281Z,82.74
2022-12-25T22:23:49.285Z,82.75
2022-12-25T22:26:20.823Z,82.91
2022-12-25T22:29:05.492Z,82.86
2022-12-25T22:31:40.855Z,82.77
2022-12-25T22:34:15.252Z,82.75
2022-12-25T22:36:44.753Z,82.68
2022-12-25T22:39:12.110Z,82.72
2022-12-25T22:41:39.141Z,82.83
2022-12-25T22:44:17.877Z,82.86
2022-12-25T22:46:45.888Z,82.72
2022-12-25T22:49:18.660Z,82.74
2022-12-25T22:51:51.216Z,82.75
2022-12-25T22:54:53.619Z,82.89
2022-12-25T22:57:40.731Z,82.94
2022-12-25T23:00:08.385Z,82.95
2022-12-25T23:02:35.544Z,83.00
2022-12-25T23:05:03.190Z,83.02
2022-12-25T23:07:30.208Z,83.09
2022-12-25T23:10:01.307Z,83.11
2022-12-25T23:16:24.164Z,83.01
2022-12-25T23:19:12.396Z,82.86
2022-12-25T23:22:00.442Z,83.08
2022-12-25T23:24:46.413Z,82.97
2022-12-25T23:27:14.076Z,83.05
2022-12-25T23:29:47.334Z,83.15
2022-12-25T23:32:22.165Z,83.00
2022-12-25T23:35:10.964Z,83.04
2022-12-25T23:45:10.757Z,83.07
2022-12-25T23:47:41.097Z,83.05
2022-12-25T23:50:11.299Z,83.23
2022-12-25T23:52:39.285Z,83.17
2022-12-25T23:55:11.580Z,83.26
2022-12-25T23:57:40.900Z,83.12
